Wetterdaten: aktuell Donnerstag, 23.11.2017 19:32
Datum Zeit Temp. A. Feuchte A. Luftdruck Regen Wind Richtung Richtung Taupunkt Windchill Windben
23.11.2017 19:32 6,3 C 82 % 1016,4 hPa 0,0 l/m 6,1 km/h (2 Bft) SW 223 3,5 C 5,2 C 8,0 km/h (2 Bft)
23.11.2017 19:31 6,3 C 82 % 1016,4 hPa 0,0 l/m 8,8 km/h (2 Bft) W-SW 239 3,5 C 4,5 C 11,3 km/h (2 Bft)
23.11.2017 19:30 6,3 C 82 % 1016,4 hPa 0,0 l/m 10,7 km/h (2 Bft) SW 229 3,5 C 4,1 C 12,9 km/h (3 Bft)
23.11.2017 19:29 6,3 C 82 % 1016,4 hPa 0,0 l/m 8,4 km/h (2 Bft) SW 219 3,5 C 4,6 C 12,9 km/h (3 Bft)
23.11.2017 19:28 6,3 C 82 % 1016,4 hPa 0,0 l/m 10,3 km/h (2 Bft) S-SW 195 3,5 C 4,2 C 12,9 km/h (3 Bft)
23.11.2017 19:27 6,3 C 82 % 1016,4 hPa 0,0 l/m 12,0 km/h (2 Bft) SW 219 3,5 C 3,8 C 14,5 km/h (3 Bft)
23.11.2017 19:26 6,3 C 82 % 1016,4 hPa 0,0 l/m 8,9 km/h (2 Bft) S-SW 209 3,5 C 4,4 C 12,9 km/h (3 Bft)
23.11.2017 19:25 6,3 C 82 % 1016,4 hPa 0,0 l/m 9,1 km/h (2 Bft) S-SW 209 3,5 C 4,4 C 11,3 km/h (2 Bft)
23.11.2017 19:24 6,3 C 82 % 1016,4 hPa 0,0 l/m 10,6 km/h (2 Bft) SW 230 3,5 C 4,1 C 12,9 km/h (3 Bft)
23.11.2017 19:23 6,3 C 82 % 1016,4 hPa 0,0 l/m 10,4 km/h (2 Bft) S-SW 193 3,5 C 4,1 C 12,9 km/h (3 Bft)
23.11.2017 19:22 6,3 C 82 % 1016,4 hPa 0,0 l/m 9,9 km/h (2 Bft) S-SW 194 3,5 C 4,2 C 14,5 km/h (3 Bft)
23.11.2017 19:21 6,3 C 82 % 1016,4 hPa 0,0 l/m 8,3 km/h (2 Bft) SW 224 3,5 C 4,6 C 11,3 km/h (2 Bft)
23.11.2017 19:20 6,3 C 82 % 1016,4 hPa 0,0 l/m 9,4 km/h (2 Bft) SW 233 3,5 C 4,3 C 12,9 km/h (3 Bft)
23.11.2017 19:19 6,3 C 82 % 1016,4 hPa 0,0 l/m 9,1 km/h (2 Bft) SW 221 3,5 C 4,4 C 12,9 km/h (3 Bft)
23.11.2017 19:18 6,3 C 82 % 1016,4 hPa 0,0 l/m 9,8 km/h (2 Bft) S-SW 207 3,5 C 4,3 C 11,3 km/h (2 Bft)
23.11.2017 19:17 6,3 C 82 % 1016,4 hPa 0,0 l/m 10,8 km/h (2 Bft) SW 217 3,5 C 4,1 C 14,5 km/h (3 Bft)
23.11.2017 19:16 6,4 C 81 % 1016,5 hPa 0,0 l/m 7,5 km/h (2 Bft) S-SW 210 3,4 C 4,9 C 9,7 km/h (2 Bft)
23.11.2017 19:15 6,4 C 81 % 1016,5 hPa 0,0 l/m 9,1 km/h (2 Bft) SW 221 3,4 C 4,5 C 11,3 km/h (2 Bft)
23.11.2017 19:14 6,4 C 81 % 1016,5 hPa 0,0 l/m 9,1 km/h (2 Bft) SW 222 3,4 C 4,5 C 12,9 km/h (3 Bft)
23.11.2017 19:13 6,4 C 81 % 1016,4 hPa 0,0 l/m 8,5 km/h (2 Bft) S-SW 200 3,4 C 4,7 C 11,3 km/h (2 Bft)
23.11.2017 19:12 6,4 C 82 % 1016,4 hPa 0,0 l/m 9,6 km/h (2 Bft) SW 216 3,6 C 4,4 C 12,9 km/h (3 Bft)
23.11.2017 19:10 6,4 C 81 % 1016,4 hPa 0,0 l/m 11,5 km/h (2 Bft) S-SW 211 3,4 C 4,0 C 16,1 km/h (3 Bft)
23.11.2017 19:09 6,4 C 81 % 1016,4 hPa 0,0 l/m 9,2 km/h (2 Bft) S-SW 206 3,4 C 4,5 C 14,5 km/h (3 Bft)
23.11.2017 19:08 6,4 C 82 % 1016,4 hPa 0,0 l/m 9,9 km/h (2 Bft) S-SW 200 3,6 C 4,4 C 12,9 km/h (3 Bft)
23.11.2017 19:07 6,4 C 82 % 1016,4 hPa 0,0 l/m 7,4 km/h (2 Bft) S-SW 197 3,6 C 4,9 C 11,3 km/h (2 Bft)
23.11.2017 19:06 6,4 C 82 % 1016,4 hPa 0,0 l/m 9,4 km/h (2 Bft) S-SW 205 3,6 C 4,5 C 14,5 km/h (3 Bft)
23.11.2017 19:04 6,4 C 81 % 1016,4 hPa 0,0 l/m 8,7 km/h (2 Bft) SW 216 3,4 C 4,6 C 14,5 km/h (3 Bft)
23.11.2017 19:03 6,4 C 81 % 1016,4 hPa 0,0 l/m 10,9 km/h (2 Bft) S-SW 201 3,4 C 4,2 C 14,5 km/h (3 Bft)
23.11.2017 19:02 6,4 C 81 % 1016,4 hPa 0,0 l/m 9,9 km/h (2 Bft) S-SW 202 3,4 C 4,4 C 14,5 km/h (3 Bft)
23.11.2017 19:01 6,5 C 81 % 1016,4 hPa 0,0 l/m 10,9 km/h (2 Bft) S-SW 203 3,5 C 4,3 C 14,5 km/h (3 Bft)
23.11.2017 19:00 6,5 C 81 % 1016,4 hPa 0,0 l/m 11,8 km/h (2 Bft) S-SW 209 3,5 C 4,1 C 14,5 km/h (3 Bft)
23.11.2017 18:59 6,5 C 81 % 1016,4 hPa 0,0 l/m 12,7 km/h (3 Bft) SW 214 3,5 C 4,0 C 14,5 km/h (3 Bft)
23.11.2017 18:58 6,5 C 81 % 1016,4 hPa 0,0 l/m 9,7 km/h (2 Bft) S-SW 204 3,5 C 4,5 C 12,9 km/h (3 Bft)
23.11.2017 18:57 6,5 C 81 % 1016,4 hPa 0,0 l/m 10,6 km/h (2 Bft) S 183 3,5 C 4,3 C 14,5 km/h (3 Bft)
23.11.2017 18:56 6,5 C 81 % 1016,5 hPa 0,0 l/m 9,6 km/h (2 Bft) SW 217 3,5 C 4,5 C 11,3 km/h (2 Bft)
23.11.2017 18:55 6,5 C 81 % 1016,5 hPa 0,0 l/m 10,5 km/h (2 Bft) S-SW 198 3,5 C 4,4 C 14,5 km/h (3 Bft)
23.11.2017 18:54 6,5 C 81 % 1016,5 hPa 0,0 l/m 10,1 km/h (2 Bft) S-SW 211 3,5 C 4,4 C 12,9 km/h (3 Bft)
23.11.2017 18:53 6,5 C 81 % 1016,5 hPa 0,0 l/m 9,6 km/h (2 Bft) S 186 3,5 C 4,5 C 12,9 km/h (3 Bft)
23.11.2017 18:52 6,5 C 81 % 1016,5 hPa 0,0 l/m 7,7 km/h (2 Bft) S-SW 209 3,5 C 5,0 C 11,3 km/h (2 Bft)
23.11.2017 18:51 6,5 C 81 % 1016,5 hPa 0,0 l/m 8,0 km/h (2 Bft) S-SW 202 3,5 C 4,9 C 11,3 km/h (2 Bft)
23.11.2017 18:50 6,5 C 81 % 1016,5 hPa 0,0 l/m 9,3 km/h (2 Bft) SW 219 3,5 C 4,6 C 11,3 km/h (2 Bft)
23.11.2017 18:49 6,4 C 81 % 1016,5 hPa 0,0 l/m 9,2 km/h (2 Bft) SW 217 3,4 C 4,5 C 12,9 km/h (3 Bft)
23.11.2017 18:48 6,5 C 81 % 1016,5 hPa 0,0 l/m 6,7 km/h (2 Bft) S-SW 206 3,5 C 5,2 C 8,0 km/h (2 Bft)
23.11.2017 18:47 6,4 C 81 % 1016,5 hPa 0,0 l/m 8,3 km/h (2 Bft) S-SW 205 3,4 C 4,7 C 9,7 km/h (2 Bft)
23.11.2017 18:46 6,4 C 81 % 1016,5 hPa 0,0 l/m 9,6 km/h (2 Bft) S-SW 211 3,4 C 4,4 C 11,3 km/h (2 Bft)
23.11.2017 18:45 6,4 C 81 % 1016,5 hPa 0,0 l/m 8,9 km/h (2 Bft) S-SW 206 3,4 C 4,6 C 11,3 km/h (2 Bft)
23.11.2017 18:44 6,3 C 82 % 1016,5 hPa 0,0 l/m 8,5 km/h (2 Bft) S-SW 198 3,5 C 4,5 C 11,3 km/h (2 Bft)
23.11.2017 18:43 6,3 C 82 % 1016,5 hPa 0,0 l/m 8,5 km/h (2 Bft) SW 217 3,5 C 4,5 C 11,3 km/h (2 Bft)
23.11.2017 18:42 6,3 C 82 % 1016,5 hPa 0,0 l/m 6,8 km/h (2 Bft) S-SW 195 3,5 C 5,0 C 8,0 km/h (2 Bft)
23.11.2017 18:41 6,3 C 82 % 1016,6 hPa 0,0 l/m 7,5 km/h (2 Bft) S-SW 203 3,5 C 4,8 C 9,7 km/h (2 Bft)
23.11.2017 18:40 6,3 C 82 % 1016,6 hPa 0,0 l/m 8,4 km/h (2 Bft) SW 230 3,5 C 4,6 C 9,7 km/h (2 Bft)
23.11.2017 18:39 6,3 C 82 % 1016,6 hPa 0,0 l/m 7,1 km/h (2 Bft) SW 223 3,5 C 4,9 C 8,0 km/h (2 Bft)
23.11.2017 18:38 6,3 C 82 % 1016,5 hPa 0,0 l/m 5,2 km/h (1 Bft) SW 224 3,5 C 5,5 C 6,4 km/h (2 Bft)
23.11.2017 18:37 6,3 C 82 % 1016,6 hPa 0,0 l/m 9,0 km/h (2 Bft) SW 225 3,5 C 4,4 C 12,9 km/h (3 Bft)
23.11.2017 18:36 6,3 C 82 % 1016,5 hPa 0,0 l/m 8,5 km/h (2 Bft) SW 229 3,5 C 4,5 C 9,7 km/h (2 Bft)
23.11.2017 18:35 6,3 C 83 % 1016,5 hPa 0,0 l/m 8,4 km/h (2 Bft) SW 227 3,6 C 4,6 C 9,7 km/h (2 Bft)
23.11.2017 18:34 6,3 C 83 % 1016,5 hPa 0,0 l/m 7,8 km/h (2 Bft) SW 221 3,6 C 4,7 C 9,7 km/h (2 Bft)
23.11.2017 18:33 6,2 C 83 % 1016,6 hPa 0,0 l/m 9,6 km/h (2 Bft) SW 219 3,5 C 4,2 C 12,9 km/h (3 Bft)
23.11.2017 18:32 6,2 C 83 % 1016,5 hPa 0,0 l/m 7,2 km/h (2 Bft) SW 230 3,5 C 4,8 C 11,3 km/h (2 Bft)
23.11.2017 18:31 6,2 C 83 % 1016,5 hPa 0,0 l/m 8,7 km/h (2 Bft) SW 224 3,5 C 4,4 C 9,7 km/h (2 Bft)
23.11.2017 18:30 6,2 C 83 % 1016,5 hPa 0,0 l/m 8,7 km/h (2 Bft) SW 227 3,5 C 4,4 C 9,7 km/h (2 Bft)
23.11.2017 18:29 6,2 C 83 % 1016,5 hPa 0,0 l/m 6,8 km/h (2 Bft) SW 233 3,5 C 4,9 C 9,7 km/h (2 Bft)
23.11.2017 18:27 6,2 C 83 % 1016,6 hPa 0,0 l/m 6,8 km/h (2 Bft) SW 231 3,5 C 4,9 C 8,0 km/h (2 Bft)
23.11.2017 18:26 6,2 C 83 % 1016,6 hPa 0,0 l/m 7,1 km/h (2 Bft) SW 229 3,5 C 4,8 C 9,7 km/h (2 Bft)
23.11.2017 18:25 6,2 C 84 % 1016,5 hPa 0,0 l/m 6,6 km/h (2 Bft) SW 229 3,7 C 4,9 C 9,7 km/h (2 Bft)
23.11.2017 18:24 6,2 C 84 % 1016,5 hPa 0,0 l/m 6,0 km/h (2 Bft) SW 229 3,7 C 5,1 C 8,0 km/h (2 Bft)
23.11.2017 18:23 6,2 C 84 % 1016,6 hPa 0,0 l/m 5,0 km/h (1 Bft) W-SW 237 3,7 C 5,4 C 6,4 km/h (2 Bft)
23.11.2017 18:22 6,2 C 84 % 1016,6 hPa 0,0 l/m 5,7 km/h (2 Bft) W-SW 237 3,7 C 5,2 C 8,0 km/h (2 Bft)
23.11.2017 18:21 6,2 C 84 % 1016,5 hPa 0,0 l/m 5,2 km/h (1 Bft) W-SW 239 3,7 C 5,4 C 6,4 km/h (2 Bft)
23.11.2017 18:20 6,2 C 84 % 1016,5 hPa 0,0 l/m 6,9 km/h (2 Bft) W-SW 239 3,7 C 4,8 C 8,0 km/h (2 Bft)
23.11.2017 18:19 6,2 C 84 % 1016,5 hPa 0,0 l/m 6,0 km/h (2 Bft) SW 235 3,7 C 5,1 C 9,7 km/h (2 Bft)
23.11.2017 18:18 6,2 C 84 % 1016,5 hPa 0,0 l/m 6,6 km/h (2 Bft) SW 229 3,7 C 4,9 C 8,0 km/h (2 Bft)
23.11.2017 18:17 6,2 C 85 % 1016,5 hPa 0,0 l/m 5,3 km/h (1 Bft) SW 229 3,9 C 5,3 C 6,4 km/h (2 Bft)
23.11.2017 18:16 6,2 C 85 % 1016,5 hPa 0,0 l/m 6,7 km/h (2 Bft) SW 229 3,9 C 4,9 C 8,0 km/h (2 Bft)
23.11.2017 18:15 6,2 C 85 % 1016,5 hPa 0,0 l/m 7,7 km/h (2 Bft) SW 229 3,9 C 4,6 C 9,7 km/h (2 Bft)
23.11.2017 18:14 6,2 C 85 % 1016,4 hPa 0,0 l/m 7,4 km/h (2 Bft) SW 236 3,9 C 4,7 C 8,0 km/h (2 Bft)
23.11.2017 18:13 6,1 C 85 % 1016,4 hPa 0,0 l/m 6,9 km/h (2 Bft) W-SW 237 3,8 C 4,7 C 9,7 km/h (2 Bft)
23.11.2017 18:12 6,1 C 85 % 1016,4 hPa 0,0 l/m 6,6 km/h (2 Bft) W-SW 242 3,8 C 4,8 C 8,0 km/h (2 Bft)
23.11.2017 18:11 6,1 C 85 % 1016,4 hPa 0,0 l/m 5,5 km/h (2 Bft) W-SW 248 3,8 C 5,2 C 8,0 km/h (2 Bft)
23.11.2017 18:10 6,1 C 85 % 1016,3 hPa 0,0 l/m 5,3 km/h (1 Bft) W-SW 247 3,8 C 5,2 C 8,0 km/h (2 Bft)
23.11.2017 18:09 6,1 C 85 % 1016,3 hPa 0,0 l/m 4,9 km/h (1 Bft) SW 230 3,8 C 5,4 C 8,0 km/h (2 Bft)
23.11.2017 18:08 6,1 C 86 % 1016,4 hPa 0,0 l/m 7,1 km/h (2 Bft) SW 226 3,9 C 4,7 C 9,7 km/h (2 Bft)
23.11.2017 18:07 6,1 C 86 % 1016,4 hPa 0,0 l/m 8,2 km/h (2 Bft) SW 224 3,9 C 4,4 C 11,3 km/h (2 Bft)
23.11.2017 18:05 6,1 C 86 % 1016,3 hPa 0,0 l/m 7,8 km/h (2 Bft) SW 227 3,9 C 4,5 C 9,7 km/h (2 Bft)
23.11.2017 18:04 6,1 C 86 % 1016,3 hPa 0,0 l/m 6,2 km/h (2 Bft) SW 219 3,9 C 4,9 C 9,7 km/h (2 Bft)
23.11.2017 18:03 6,0 C 86 % 1016,3 hPa 0,0 l/m 9,7 km/h (2 Bft) SW 223 3,8 C 3,9 C 11,3 km/h (2 Bft)
23.11.2017 18:02 5,9 C 86 % 1016,3 hPa 0,0 l/m 7,1 km/h (2 Bft) SW 229 3,7 C 4,4 C 12,9 km/h (3 Bft)
23.11.2017 18:00 5,9 C 86 % 1016,3 hPa 0,0 l/m 5,5 km/h (2 Bft) SW 234 3,7 C 4,9 C 8,0 km/h (2 Bft)
23.11.2017 17:59 5,9 C 87 % 1016,3 hPa 0,0 l/m 7,6 km/h (2 Bft) SW 234 3,9 C 4,3 C 9,7 km/h (2 Bft)
23.11.2017 17:58 5,9 C 86 % 1016,3 hPa 0,0 l/m 8,4 km/h (2 Bft) SW 232 3,7 C 4,1 C 11,3 km/h (2 Bft)
23.11.2017 17:57 5,9 C 86 % 1016,4 hPa 0,0 l/m 7,8 km/h (2 Bft) SW 222 3,7 C 4,2 C 9,7 km/h (2 Bft)
23.11.2017 17:56 5,9 C 86 % 1016,3 hPa 0,0 l/m 7,2 km/h (2 Bft) SW 220 3,7 C 4,4 C 9,7 km/h (2 Bft)
23.11.2017 17:55 5,9 C 86 % 1016,3 hPa 0,0 l/m 8,1 km/h (2 Bft) SW 231 3,7 C 4,2 C 9,7 km/h (2 Bft)
23.11.2017 17:54 5,9 C 86 % 1016,3 hPa 0,0 l/m 7,2 km/h (2 Bft) SW 232 3,7 C 4,4 C 9,7 km/h (2 Bft)
23.11.2017 17:53 5,9 C 86 % 1016,3 hPa 0,0 l/m 8,0 km/h (2 Bft) SW 234 3,7 C 4,2 C 9,7 km/h (2 Bft)
23.11.2017 17:52 5,9 C 86 % 1016,3 hPa 0,0 l/m 7,1 km/h (2 Bft) W-SW 248 3,7 C 4,4 C 9,7 km/h (2 Bft)
23.11.2017 17:51 6,0 C 86 % 1016,3 hPa 0,0 l/m 6,4 km/h (2 Bft) SW 223 3,8 C 4,7 C 9,7 km/h (2 Bft)
23.11.2017 17:50 6,0 C 86 % 1016,3 hPa 0,0 l/m 8,0 km/h (2 Bft) SW 225 3,8 C 4,3 C 11,3 km/h (2 Bft)
23.11.2017 17:49 6,0 C 86 % 1016,3 hPa 0,0 l/m 8,2 km/h (2 Bft) SW 215 3,8 C 4,3 C 9,7 km/h (2 Bft)
23.11.2017 17:48 6,0 C 86 % 1016,3 hPa 0,0 l/m 8,8 km/h (2 Bft) S-SW 197 3,8 C 4,1 C 11,3 km/h (2 Bft)
_ Min-Zeit 07:52 15:10 05:28 - 10:22 - - 07:52 09:30 10:22
Minimum _ 3,5 C 79 % 1012,7 hPa - 0,0 km/h (0 Bft) - - 2,2 C 0,7 C 0,0 km/h (0 Bft)
_ Max-Zeit 15:06 10:22 18:22 20:00 09:30 - - 14:02 15:11 09:19
Maximum _ 7,8 C 98 % 1016,6 hPa 0,0 l/m 24,9 km/h
SW (4 Bft)
- - 5,8 C 7,7 C 30,6 km/h
SW (5 Bft)
Durchschnitt _ 5,3 C 89 % 1014,5 hPa #0,0 l/m 7,3 km/h (2 Bft) S-SW - 3,7 C 3,9 C 10,0 km/h (2 Bft)
Wetterstation Eggerszell